PWSweather.com
Personal Weather Stations
Station Observations
MDHALE1
Southwest Baltimore Co., Halethorpe, MD 21227

Southwest Baltimore Co.Halethorpe, MD 21227

Lat: 39.23643, Lon: -76.696959

Elevation: 86

Station Type: Davis Vantage Pro2+

http://www.halethorpeweather.com

Latest ConditionsUpdated 7:45:00 AM EDT Sunday, May 1, 2016
Currently Today's Max Today's Min Today's Average
Temperature 49.5°F9.7°C 52.4°F11.3°C 49.2°F9.6°C 50.1°F10.1°C
Dew Point 47.2°F8.4°C 49.3°F9.6°C 45.1°F7.3°C 46.7°F8.2°C
Winds Calm Calm 1.2 mph SE1.9 kmh SE - 0.2 mph 0.3 kmh
Wind Gusts -- 6.9 mph11.1 kmh - -
Humidity 92% 92% 83% 88%
Pressure 30.12 in1020.0 mb 30.19 in1022.4 mb 30.12 in1020.0 mb -
Precipitation - 0.22 in5.6 mm - -
Hour Temp Dew Point Humidity Winds Wind Gusts Pressure Precip Precip Rate Daily Precip Total
07:45 AM 49.5°F9.7°C 47.2°F8.4°C 92% Calm Calm -- 30.12 in1020.0 mb - 0.02 in0.5 mm 0.22 in5.6 mm
07:30 AM 49.4°F9.7°C 47.2°F8.4°C 92% 1.2 mph E1.9 kmh E 3.5 mph5.6 kmh 30.12 in1020.0 mb - 0.01 in0.3 mm 0.20 in5.1 mm
07:15 AM 49.4°F9.7°C 46.8°F8.2°C 91% Calm Calm 2.3 mph3.7 kmh 30.12 in1020.0 mb - 0.01 in0.3 mm 0.19 in4.8 mm
07:00 AM 49.4°F9.7°C 46.9°F8.3°C 91% 1.2 mph SE1.9 kmh SE -- 30.13 in1020.3 mb - 0.01 in0.3 mm 0.18 in4.6 mm
06:45 AM 49.3°F9.6°C 46.8°F8.2°C 91% Calm Calm -- 30.13 in1020.3 mb - 0.01 in0.3 mm 0.17 in4.3 mm
06:30 AM 49.3°F9.6°C 46.8°F8.2°C 91% Calm Calm -- 30.13 in1020.3 mb - 0.01 in0.3 mm 0.16 in4.1 mm
06:15 AM 49.3°F9.6°C 46.8°F8.2°C 91% Calm Calm -- 30.12 in1020.0 mb - 0.02 in0.5 mm 0.15 in3.8 mm
06:00 AM 49.2°F9.6°C 46.7°F8.2°C 91% Calm Calm -- 30.13 in1020.3 mb - 0.03 in0.8 mm 0.14 in3.6 mm
05:45 AM 49.2°F9.6°C 46.4°F8.0°C 90% Calm Calm -- 30.13 in1020.3 mb - 0.03 in0.8 mm 0.11 in2.8 mm
05:30 AM 49.2°F9.6°C 46.4°F8.0°C 90% Calm Calm -- 30.12 in1020.0 mb - 0.01 in0.3 mm 0.08 in2.0 mm
05:15 AM 49.3°F9.6°C 46.5°F8.1°C 90% Calm Calm -- 30.12 in1020.0 mb - 0.01 in0.3 mm 0.07 in1.8 mm
05:00 AM 49.3°F9.6°C 46.5°F8.1°C 90% Calm Calm -- 30.13 in1020.3 mb - 0.01 in0.3 mm 0.06 in1.5 mm
04:45 AM 49.2°F9.6°C 46.1°F7.8°C 89% Calm Calm -- 30.13 in1020.3 mb - 0.00 in0.0 mm 0.05 in1.3 mm
04:30 AM 49.3°F9.6°C 46.2°F7.9°C 89% Calm Calm -- 30.13 in1020.3 mb - 0.01 in0.3 mm 0.05 in1.3 mm
04:15 AM 49.3°F9.6°C 46.2°F7.9°C 89% Calm Calm -- 30.13 in1020.3 mb - 0.01 in0.3 mm 0.05 in1.3 mm
04:00 AM 49.4°F9.7°C 46.0°F7.8°C 88% Calm Calm -- 30.13 in1020.3 mb - 0.01 in0.3 mm 0.04 in1.0 mm
03:45 AM 49.3°F9.6°C 45.9°F7.7°C 88% Calm Calm -- 30.14 in1020.7 mb - 0.00 in0.0 mm 0.03 in0.8 mm
03:30 AM 49.4°F9.7°C 46.0°F7.8°C 88% Calm Calm -- 30.14 in1020.7 mb - 0.01 in0.3 mm 0.03 in0.8 mm
03:15 AM 49.6°F9.8°C 45.9°F7.7°C 87% Calm Calm -- 30.14 in1020.7 mb - 0.00 in0.0 mm 0.02 in0.5 mm
03:00 AM 49.7°F9.8°C 45.7°F7.6°C 86% Calm Calm -- 30.14 in1020.7 mb - 0.01 in0.3 mm 0.02 in0.5 mm
02:45 AM 49.9°F9.9°C 45.3°F7.4°C 84% Calm Calm -- 30.15 in1021.0 mb - 0.00 in0.0 mm 0.01 in0.3 mm
02:30 AM 50.1°F10.1°C 45.1°F7.3°C 83% 1.2 mph SE1.9 kmh SE 3.5 mph5.6 kmh 30.15 in1021.0 mb - 0.00 in0.0 mm 0.01 in0.3 mm
02:15 AM 50.4°F10.2°C 45.4°F7.4°C 83% Calm Calm 2.3 mph3.7 kmh 30.15 in1021.0 mb - 0.01 in0.3 mm 0.01 in0.3 mm
02:00 AM 50.9°F10.5°C 46.6°F8.1°C 85% 1.2 mph SE1.9 kmh SE 6.9 mph11.1 kmh 30.15 in1021.0 mb - 0.00 in0.0 mm 0.00 in0.0 mm
01:45 AM 51.2°F10.7°C 46.8°F8.2°C 85% 1.2 mph SE1.9 kmh SE 3.5 mph5.6 kmh 30.16 in1021.3 mb - 0.00 in0.0 mm 0.00 in0.0 mm
01:30 AM 51.3°F10.7°C 46.9°F8.3°C 85% Calm Calm -- 30.17 in1021.7 mb - 0.00 in0.0 mm 0.00 in0.0 mm
01:15 AM 51.4°F10.8°C 47.0°F8.3°C 85% Calm Calm 3.5 mph5.6 kmh 30.18 in1022.0 mb - 0.00 in0.0 mm 0.00 in0.0 mm
01:00 AM 51.5°F10.8°C 47.1°F8.4°C 85% Calm Calm 2.3 mph3.7 kmh 30.19 in1022.4 mb - 0.00 in0.0 mm 0.00 in0.0 mm
12:45 AM 51.7°F10.9°C 48.0°F8.9°C 87% Calm Calm 1.2 mph1.9 kmh 30.18 in1022.0 mb - 0.00 in0.0 mm 0.00 in0.0 mm
12:30 AM 51.9°F11.1°C 48.5°F9.2°C 88% 1.2 mph SE1.9 kmh SE 3.5 mph5.6 kmh 30.19 in1022.4 mb - 0.00 in0.0 mm 0.00 in0.0 mm
12:15 AM 52.2°F11.2°C 48.8°F9.3°C 88% Calm Calm 3.5 mph5.6 kmh 30.19 in1022.4 mb - 0.00 in0.0 mm 0.00 in0.0 mm
12:01 AM 52.4°F11.3°C 49.3°F9.6°C 89% Calm Calm -- 30.19 in1022.4 mb - 0.00 in0.0 mm 0.00 in0.0 mm